sensor_id;sensor_type;location;lat;lon;timestamp;pressure;altitude;pressure_sealevel;temperature;humidity
4449;BME280;2237;51.870;6.160;2023-04-08T00:00:39;102124.88;;;9.65;100.00
4449;BME280;2237;51.870;6.160;2023-04-08T00:03:06;102137.00;;;9.68;100.00
4449;BME280;2237;51.870;6.160;2023-04-08T00:05:32;102134.41;;;9.73;100.00
4449;BME280;2237;51.870;6.160;2023-04-08T00:07:59;102137.00;;;9.73;100.00
4449;BME280;2237;51.870;6.160;2023-04-08T00:10:25;102136.16;;;9.72;100.00
4449;BME280;2237;51.870;6.160;2023-04-08T00:12:52;102135.28;;;9.75;100.00
4449;BME280;2237;51.870;6.160;2023-04-08T00:15:18;102137.91;;;9.75;100.00
4449;BME280;2237;51.870;6.160;2023-04-08T00:17:44;102136.16;;;9.72;100.00
4449;BME280;2237;51.870;6.160;2023-04-08T00:20:11;102139.59;;;9.73;100.00
4449;BME280;2237;51.870;6.160;2023-04-08T00:22:38;102139.59;;;9.73;100.00
4449;BME280;2237;51.870;6.160;2023-04-08T00:25:05;102150.03;;;9.74;100.00
4449;BME280;2237;51.870;6.160;2023-04-08T00:27:34;102138.75;;;9.69;100.00
4449;BME280;2237;51.870;6.160;2023-04-08T00:30:01;102154.34;;;9.68;100.00
4449;BME280;2237;51.870;6.160;2023-04-08T00:32:28;102152.59;;;9.60;100.00
4449;BME280;2237;51.870;6.160;2023-04-08T00:34:55;102156.03;;;9.53;100.00
4449;BME280;2237;51.870;6.160;2023-04-08T00:37:21;102156.00;;;9.44;100.00
4449;BME280;2237;51.870;6.160;2023-04-08T00:39:48;102155.13;;;9.47;100.00
4449;BME280;2237;51.870;6.160;2023-04-08T00:42:16;102156.00;;;9.43;100.00
4449;BME280;2237;51.870;6.160;2023-04-08T00:44:42;102159.44;;;9.36;100.00
4449;BME280;2237;51.870;6.160;2023-04-08T00:47:12;102153.38;;;9.35;100.00
4449;BME280;2237;51.870;6.160;2023-04-08T00:49:38;102157.72;;;9.36;100.00
4449;BME280;2237;51.870;6.160;2023-04-08T00:52:05;102156.78;;;9.22;100.00
4449;BME280;2237;51.870;6.160;2023-04-08T00:54:31;102155.84;;;9.05;100.00
4449;BME280;2237;51.870;6.160;2023-04-08T00:56:58;102159.31;;;9.02;100.00
4449;BME280;2237;51.870;6.160;2023-04-08T00:59:28;102165.38;;;9.04;100.00
4449;BME280;2237;51.870;6.160;2023-04-08T01:04:40;102166.19;;;8.99;100.00
4449;BME280;2237;51.870;6.160;2023-04-08T01:07:24;102166.25;;;9.05;100.00
4449;BME280;2237;51.870;6.160;2023-04-08T01:09:54;102170.59;;;9.07;100.00
4449;BME280;2237;51.870;6.160;2023-04-08T01:12:25;102168.84;;;9.08;100.00
4449;BME280;2237;51.870;6.160;2023-04-08T01:14:59;102164.50;;;9.08;100.00
4449;BME280;2237;51.870;6.160;2023-04-08T01:17:28;102162.75;;;9.04;100.00
4449;BME280;2237;51.870;6.160;2023-04-08T01:19:56;102166.22;;;9.02;100.00
4449;BME280;2237;51.870;6.160;2023-04-08T01:25:26;102159.31;;;9.02;100.00
4449;BME280;2237;51.870;6.160;2023-04-08T01:27:55;102165.28;;;8.94;100.00
4449;BME280;2237;51.870;6.160;2023-04-08T01:30:24;102166.13;;;8.88;100.00
4449;BME280;2237;51.870;6.160;2023-04-08T01:32:54;102169.56;;;8.83;100.00
4449;BME280;2237;51.870;6.160;2023-04-08T01:35:22;102165.25;;;8.86;100.00
4449;BME280;2237;51.870;6.160;2023-04-08T01:37:50;102170.47;;;8.88;100.00
4449;BME280;2237;51.870;6.160;2023-04-08T01:40:18;102167.81;;;8.79;100.00
4449;BME280;2237;51.870;6.160;2023-04-08T01:42:47;102166.03;;;8.72;100.00
4449;BME280;2237;51.870;6.160;2023-04-08T01:45:14;102167.75;;;8.70;100.00
4449;BME280;2237;51.870;6.160;2023-04-08T01:47:43;102173.78;;;8.69;100.00
4449;BME280;2237;51.870;6.160;2023-04-08T01:50:12;102169.47;;;8.71;100.00
4449;BME280;2237;51.870;6.160;2023-04-08T01:52:42;102181.63;;;8.75;100.00
4449;BME280;2237;51.870;6.160;2023-04-08T01:55:10;102175.59;;;8.79;100.00
4449;BME280;2237;51.870;6.160;2023-04-08T01:57:37;102178.22;;;8.82;100.00
4449;BME280;2237;51.870;6.160;2023-04-08T02:00:07;102168.69;;;8.82;100.00
4449;BME280;2237;51.870;6.160;2023-04-08T02:02:36;102177.38;;;8.89;100.00
4449;BME280;2237;51.870;6.160;2023-04-08T02:05:03;102174.81;;;8.95;100.00
4449;BME280;2237;51.870;6.160;2023-04-08T02:07:30;102170.53;;;8.98;100.00
4449;BME280;2237;51.870;6.160;2023-04-08T02:09:56;102174.88;;;9.01;100.00
4449;BME280;2237;51.870;6.160;2023-04-08T02:12:24;102173.13;;;9.00;100.00
4449;BME280;2237;51.870;6.160;2023-04-08T02:14:52;102173.97;;;8.93;100.00
4449;BME280;2237;51.870;6.160;2023-04-08T02:17:44;102179.13;;;8.87;100.00
4449;BME280;2237;51.870;6.160;2023-04-08T02:20:17;102174.72;;;8.78;100.00
4449;BME280;2237;51.870;6.160;2023-04-08T02:22:59;102188.59;;;8.79;100.00
4449;BME280;2237;51.870;6.160;2023-04-08T02:25:29;102177.28;;;8.72;100.00
4449;BME280;2237;51.870;6.160;2023-04-08T02:27:57;102181.53;;;8.63;100.00
4449;BME280;2237;51.870;6.160;2023-04-08T02:30:26;102175.47;;;8.61;100.00
4449;BME280;2237;51.870;6.160;2023-04-08T02:32:53;102178.06;;;8.61;100.00
4449;BME280;2237;51.870;6.160;2023-04-08T02:35:22;102178.94;;;8.61;100.00
4449;BME280;2237;51.870;6.160;2023-04-08T02:37:49;102181.56;;;8.64;100.00
4449;BME280;2237;51.870;6.160;2023-04-08T02:40:30;102186.66;;;8.53;100.00
4449;BME280;2237;51.870;6.160;2023-04-08T02:42:57;102178.88;;;8.52;100.00
4449;BME280;2237;51.870;6.160;2023-04-08T02:45:26;102173.63;;;8.46;100.00
4449;BME280;2237;51.870;6.160;2023-04-08T02:47:53;102177.88;;;8.36;100.00
4449;BME280;2237;51.870;6.160;2023-04-08T02:50:19;102171.81;;;8.34;100.00
4449;BME280;2237;51.870;6.160;2023-04-08T02:52:46;102190.84;;;8.35;100.00
4449;BME280;2237;51.870;6.160;2023-04-08T02:55:12;102186.53;;;8.35;100.00
4449;BME280;2237;51.870;6.160;2023-04-08T02:57:40;102185.66;;;8.36;100.00
4449;BME280;2237;51.870;6.160;2023-04-08T03:00:07;102183.00;;;8.29;100.00
4449;BME280;2237;51.870;6.160;2023-04-08T03:02:35;102193.31;;;8.26;100.00
4449;BME280;2237;51.870;6.160;2023-04-08T03:05:01;102195.03;;;8.25;100.00
4449;BME280;2237;51.870;6.160;2023-04-08T03:07:29;102188.97;;;8.23;100.00
4449;BME280;2237;51.870;6.160;2023-04-08T03:09:55;102189.03;;;8.28;100.00
4449;BME280;2237;51.870;6.160;2023-04-08T03:12:22;102202.03;;;8.29;100.00
4449;BME280;2237;51.870;6.160;2023-04-08T03:14:49;102197.72;;;8.30;100.00
4449;BME280;2237;51.870;6.160;2023-04-08T03:17:15;102200.16;;;8.16;100.00
4449;BME280;2237;51.870;6.160;2023-04-08T03:19:42;102198.31;;;8.03;100.00
4449;BME280;2237;51.870;6.160;2023-04-08T03:22:08;102198.19;;;7.94;100.00
4449;BME280;2237;51.870;6.160;2023-04-08T03:24:37;102202.47;;;7.90;100.00
4449;BME280;2237;51.870;6.160;2023-04-08T03:27:05;102199.78;;;7.80;100.00
4449;BME280;2237;51.870;6.160;2023-04-08T03:29:31;102210.09;;;7.75;100.00
4449;BME280;2237;51.870;6.160;2023-04-08T03:31:58;102216.13;;;7.73;100.00
4449;BME280;2237;51.870;6.160;2023-04-08T03:34:24;102212.59;;;7.69;100.00
4449;BME280;2237;51.870;6.160;2023-04-08T03:36:51;102216.13;;;7.71;100.00
4449;BME280;2237;51.870;6.160;2023-04-08T03:39:17;102221.25;;;7.68;100.00
4449;BME280;2237;51.870;6.160;2023-04-08T03:41:44;102210.78;;;7.61;100.00
4449;BME280;2237;51.870;6.160;2023-04-08T03:44:10;102215.16;;;7.65;100.00
4449;BME280;2237;51.870;6.160;2023-04-08T03:46:36;102210.78;;;7.59;100.00
4449;BME280;2237;51.870;6.160;2023-04-08T03:49:03;102216.88;;;7.63;100.00
4449;BME280;2237;51.870;6.160;2023-04-08T03:51:29;102223.75;;;7.61;100.00
4449;BME280;2237;51.870;6.160;2023-04-08T03:53:55;102225.41;;;7.54;100.00
4449;BME280;2237;51.870;6.160;2023-04-08T03:56:22;102225.28;;;7.47;100.00
4449;BME280;2237;51.870;6.160;2023-04-08T03:58:48;102220.13;;;7.47;100.00
4449;BME280;2237;51.870;6.160;2023-04-08T04:01:15;102223.63;;;7.50;100.00
4449;BME280;2237;51.870;6.160;2023-04-08T04:03:41;102221.03;;;7.49;100.00
4449;BME280;2237;51.870;6.160;2023-04-08T04:06:08;102223.63;;;7.49;100.00
4449;BME280;2237;51.870;6.160;2023-04-08T04:08:35;102221.78;;;7.42;100.00
4449;BME280;2237;51.870;6.160;2023-04-08T04:11:02;102224.25;;;7.32;100.00
4449;BME280;2237;51.870;6.160;2023-04-08T04:13:28;102221.56;;;7.26;100.00
4449;BME280;2237;51.870;6.160;2023-04-08T04:15:54;102227.63;;;7.28;100.00
4449;BME280;2237;51.870;6.160;2023-04-08T04:18:22;102228.47;;;7.24;100.00
4449;BME280;2237;51.870;6.160;2023-04-08T04:20:49;102231.91;;;7.23;100.00
4449;BME280;2237;51.870;6.160;2023-04-08T04:23:15;102233.59;;;7.21;100.00
4449;BME280;2237;51.870;6.160;2023-04-08T04:25:42;102230.97;;;7.20;100.00
4449;BME280;2237;51.870;6.160;2023-04-08T04:28:09;102235.34;;;7.22;100.00
4449;BME280;2237;51.870;6.160;2023-04-08T04:30:37;102238.75;;;7.18;100.00
4449;BME280;2237;51.870;6.160;2023-04-08T04:33:04;102243.84;;;7.12;100.00
4449;BME280;2237;51.870;6.160;2023-04-08T04:35:30;102248.94;;;7.06;100.00
4449;BME280;2237;51.870;6.160;2023-04-08T04:37:57;102242.81;;;7.03;100.00
4449;BME280;2237;51.870;6.160;2023-04-08T04:40:23;102258.22;;;6.94;100.00
4449;BME280;2237;51.870;6.160;2023-04-08T04:42:50;102277.84;;;6.79;100.00
4449;BME280;2237;51.870;6.160;2023-04-08T04:45:16;102265.63;;;6.71;100.00
4449;BME280;2237;51.870;6.160;2023-04-08T04:47:43;102259.50;;;6.64;100.00
4449;BME280;2237;51.870;6.160;2023-04-08T04:50:09;102269.13;;;6.73;100.00
4449;BME280;2237;51.870;6.160;2023-04-08T04:52:36;102268.38;;;6.80;100.00
4449;BME280;2237;51.870;6.160;2023-04-08T04:55:02;102273.69;;;6.88;100.00
4449;BME280;2237;51.870;6.160;2023-04-08T04:57:29;102265.78;;;6.78;100.00
4449;BME280;2237;51.870;6.160;2023-04-08T04:59:55;102270.06;;;6.78;100.00
4449;BME280;2237;51.870;6.160;2023-04-08T05:02:21;102277.00;;;6.79;100.00
4449;BME280;2237;51.870;6.160;2023-04-08T05:04:48;102271.84;;;6.80;100.00
4449;BME280;2237;51.870;6.160;2023-04-08T05:07:14;102270.09;;;6.79;100.00
4449;BME280;2237;51.870;6.160;2023-04-08T05:09:41;102273.53;;;6.78;100.00
4449;BME280;2237;51.870;6.160;2023-04-08T05:12:07;102278.72;;;6.78;100.00
4449;BME280;2237;51.870;6.160;2023-04-08T05:14:34;102276.91;;;6.73;100.00
4449;BME280;2237;51.870;6.160;2023-04-08T05:17:01;102281.19;;;6.72;100.00
4449;BME280;2237;51.870;6.160;2023-04-08T05:19:27;102272.56;;;6.72;100.00
4449;BME280;2237;51.870;6.160;2023-04-08T05:21:53;102285.59;;;6.78;100.00
4449;BME280;2237;51.870;6.160;2023-04-08T05:24:20;102292.53;;;6.79;100.00
4449;BME280;2237;51.870;6.160;2023-04-08T05:26:46;102289.03;;;6.75;100.00
4449;BME280;2237;51.870;6.160;2023-04-08T05:29:17;102287.19;;;6.70;100.00
4449;BME280;2237;51.870;6.160;2023-04-08T05:31:44;102294.16;;;6.72;100.00
4449;BME280;2237;51.870;6.160;2023-04-08T05:34:10;102289.03;;;6.77;100.00
4449;BME280;2237;51.870;6.160;2023-04-08T05:36:37;102288.19;;;6.78;100.00
4449;BME280;2237;51.870;6.160;2023-04-08T05:39:03;102287.31;;;6.77;100.00
4449;BME280;2237;51.870;6.160;2023-04-08T05:41:29;102292.50;;;6.77;100.00
4449;BME280;2237;51.870;6.160;2023-04-08T05:43:56;102296.78;;;6.77;100.00
4449;BME280;2237;51.870;6.160;2023-04-08T05:46:22;102295.91;;;6.76;100.00
4449;BME280;2237;51.870;6.160;2023-04-08T05:48:48;102298.63;;;6.82;100.00
4449;BME280;2237;51.870;6.160;2023-04-08T05:51:16;102302.91;;;6.80;100.00
4449;BME280;2237;51.870;6.160;2023-04-08T05:53:46;102306.38;;;6.81;100.00
4449;BME280;2237;51.870;6.160;2023-04-08T05:56:12;102311.56;;;6.81;100.00
4449;BME280;2237;51.870;6.160;2023-04-08T05:58:38;102319.28;;;6.79;100.00
4449;BME280;2237;51.870;6.160;2023-04-08T06:01:05;102320.91;;;6.73;100.00
4449;BME280;2237;51.870;6.160;2023-04-08T06:03:32;102320.09;;;6.75;100.00
4449;BME280;2237;51.870;6.160;2023-04-08T06:05:59;102319.22;;;6.75;100.00
4449;BME280;2237;51.870;6.160;2023-04-08T06:08:25;102323.56;;;6.77;100.00
4449;BME280;2237;51.870;6.160;2023-04-08T06:10:51;102323.63;;;6.80;100.00
4449;BME280;2237;51.870;6.160;2023-04-08T06:13:18;102325.28;;;6.77;100.00
4449;BME280;2237;51.870;6.160;2023-04-08T06:15:46;102331.28;;;6.73;100.00
4449;BME280;2237;51.870;6.160;2023-04-08T06:18:15;102333.03;;;6.77;100.00
4449;BME280;2237;51.870;6.160;2023-04-08T06:20:42;102333.19;;;6.86;100.00
4449;BME280;2237;51.870;6.160;2023-04-08T06:23:08;102342.75;;;6.89;100.00
4449;BME280;2237;51.870;6.160;2023-04-08T06:25:34;102349.72;;;6.93;100.00
4449;BME280;2237;51.870;6.160;2023-04-08T06:28:01;102344.59;;;6.97;100.00
4449;BME280;2237;51.870;6.160;2023-04-08T06:30:27;102347.25;;;7.00;100.00
4449;BME280;2237;51.870;6.160;2023-04-08T06:32:54;102358.59;;;7.08;100.00
4449;BME280;2237;51.870;6.160;2023-04-08T06:35:20;102353.53;;;7.14;100.00
4449;BME280;2237;51.870;6.160;2023-04-08T06:37:47;102350.25;;;7.26;100.00
4449;BME280;2237;51.870;6.160;2023-04-08T06:40:13;102352.94;;;7.30;100.00
4449;BME280;2237;51.870;6.160;2023-04-08T06:42:39;102359.06;;;7.35;100.00
4449;BME280;2237;51.870;6.160;2023-04-08T06:45:09;102361.75;;;7.42;100.00
4449;BME280;2237;51.870;6.160;2023-04-08T06:47:37;102357.53;;;7.48;100.00
4449;BME280;2237;51.870;6.160;2023-04-08T06:50:04;102360.22;;;7.54;100.00
4449;BME280;2237;51.870;6.160;2023-04-08T06:52:30;102354.25;;;7.60;100.00
4449;BME280;2237;51.870;6.160;2023-04-08T06:54:57;102362.09;;;7.66;100.00
4449;BME280;2237;51.870;6.160;2023-04-08T06:57:23;102361.19;;;7.64;100.00
4449;BME280;2237;51.870;6.160;2023-04-08T07:00:11;102365.53;;;7.65;100.00
4449;BME280;2237;51.870;6.160;2023-04-08T07:02:37;102371.66;;;7.68;100.00
4449;BME280;2237;51.870;6.160;2023-04-08T07:05:16;102374.34;;;7.76;100.00
4449;BME280;2237;51.870;6.160;2023-04-08T07:07:45;102379.75;;;7.92;100.00
4449;BME280;2237;51.870;6.160;2023-04-08T07:10:12;102373.59;;;7.84;100.00
4449;BME280;2237;51.870;6.160;2023-04-08T07:12:38;102378.81;;;7.87;100.00
4449;BME280;2237;51.870;6.160;2023-04-08T07:15:05;102383.97;;;7.84;100.00
4449;BME280;2237;51.870;6.160;2023-04-08T07:17:32;102388.31;;;7.85;100.00
4449;BME280;2237;51.870;6.160;2023-04-08T07:19:59;102391.78;;;7.86;100.00
4449;BME280;2237;51.870;6.160;2023-04-08T07:22:25;102396.94;;;7.83;100.00
4449;BME280;2237;51.870;6.160;2023-04-08T07:24:52;102396.09;;;7.87;100.00
4449;BME280;2237;51.870;6.160;2023-04-08T07:27:18;102399.66;;;7.92;100.00
4449;BME280;2237;51.870;6.160;2023-04-08T07:29:44;102405.84;;;8.05;100.00
4449;BME280;2237;51.870;6.160;2023-04-08T07:32:11;102397.28;;;8.10;100.00
4449;BME280;2237;51.870;6.160;2023-04-08T07:34:37;102400.03;;;8.22;100.00
4449;BME280;2237;51.870;6.160;2023-04-08T07:37:04;102400.06;;;8.24;100.00
4449;BME280;2237;51.870;6.160;2023-04-08T07:39:30;102400.22;;;8.34;100.00
4449;BME280;2237;51.870;6.160;2023-04-08T07:41:57;102395.94;;;8.38;100.00
4449;BME280;2237;51.870;6.160;2023-04-08T07:44:23;102399.53;;;8.49;100.00
4449;BME280;2237;51.870;6.160;2023-04-08T07:46:49;102407.34;;;8.52;100.00
4449;BME280;2237;51.870;6.160;2023-04-08T07:49:17;102408.19;;;8.51;100.00
4449;BME280;2237;51.870;6.160;2023-04-08T07:51:43;102403.84;;;8.47;100.00
4449;BME280;2237;51.870;6.160;2023-04-08T07:54:10;102409.03;;;8.48;100.00
4449;BME280;2237;51.870;6.160;2023-04-08T07:56:38;102416.84;;;8.51;100.00
4449;BME280;2237;51.870;6.160;2023-04-08T07:59:05;102417.78;;;8.57;100.00
4449;BME280;2237;51.870;6.160;2023-04-08T08:01:32;102416.25;;;8.75;100.00
4449;BME280;2237;51.870;6.160;2023-04-08T08:04:01;102422.47;;;8.88;100.00
4449;BME280;2237;51.870;6.160;2023-04-08T08:06:29;102433.81;;;8.97;100.00
4449;BME280;2237;51.870;6.160;2023-04-08T08:08:58;102424.31;;;8.99;100.00
4449;BME280;2237;51.870;6.160;2023-04-08T08:11:24;102426.22;;;9.20;100.00
4449;BME280;2237;51.870;6.160;2023-04-08T08:13:52;102423.75;;;9.34;100.00
4449;BME280;2237;51.870;6.160;2023-04-08T08:16:19;102430.03;;;9.61;100.00
4449;BME280;2237;51.870;6.160;2023-04-08T08:18:46;102430.16;;;9.81;100.00
4449;BME280;2237;51.870;6.160;2023-04-08T08:21:12;102425.88;;;9.89;100.00
4449;BME280;2237;51.870;6.160;2023-04-08T08:23:39;102422.41;;;9.86;100.00
4449;BME280;2237;51.870;6.160;2023-04-08T08:26:07;102436.09;;;9.57;100.00
4449;BME280;2237;51.870;6.160;2023-04-08T08:28:38;102429.91;;;9.46;100.00
4449;BME280;2237;51.870;6.160;2023-04-08T08:31:05;102434.34;;;9.61;100.00
4449;BME280;2237;51.870;6.160;2023-04-08T08:33:32;102433.53;;;9.70;100.00
4449;BME280;2237;51.870;6.160;2023-04-08T08:35:58;102433.66;;;9.85;100.00
4449;BME280;2237;51.870;6.160;2023-04-08T08:38:25;102444.09;;;9.91;100.00
4449;BME280;2237;51.870;6.160;2023-04-08T08:40:56;102448.50;;;9.98;100.00
4449;BME280;2237;51.870;6.160;2023-04-08T08:43:23;102451.06;;;9.95;100.00
4449;BME280;2237;51.870;6.160;2023-04-08T08:45:50;102438.03;;;9.90;100.00
4449;BME280;2237;51.870;6.160;2023-04-08T08:48:17;102452.81;;;9.99;100.00
4449;BME280;2237;51.870;6.160;2023-04-08T08:50:43;102446.72;;;9.92;100.00
4449;BME280;2237;51.870;6.160;2023-04-08T08:53:10;102450.22;;;9.99;100.00
4449;BME280;2237;51.870;6.160;2023-04-08T08:55:37;102460.69;;;10.03;100.00
4449;BME280;2237;51.870;6.160;2023-04-08T08:58:26;102461.56;;;10.10;100.00
4449;BME280;2237;51.870;6.160;2023-04-08T09:00:53;102446.00;;;10.14;100.00
4449;BME280;2237;51.870;6.160;2023-04-08T09:03:24;102453.00;;;10.18;100.00
4449;BME280;2237;51.870;6.160;2023-04-08T09:05:55;102453.81;;;10.16;100.00
4449;BME280;2237;51.870;6.160;2023-04-08T09:11:12;102443.44;;;10.17;100.00
4449;BME280;2237;51.870;6.160;2023-04-08T09:13:39;102439.09;;;10.18;100.00
4449;BME280;2237;51.870;6.160;2023-04-08T09:16:07;102448.66;;;10.25;100.00
4449;BME280;2237;51.870;6.160;2023-04-08T09:18:36;102448.59;;;10.16;100.00
4449;BME280;2237;51.870;6.160;2023-04-08T09:21:04;102447.84;;;10.37;100.00
4449;BME280;2237;51.870;6.160;2023-04-08T09:23:44;102449.69;;;10.63;100.00
4449;BME280;2237;51.870;6.160;2023-04-08T09:26:12;102448.78;;;10.51;100.00
4449;BME280;2237;51.870;6.160;2023-04-08T09:28:40;102451.47;;;10.67;100.00
4449;BME280;2237;51.870;6.160;2023-04-08T09:31:23;102449.72;;;10.77;100.00
4449;BME280;2237;51.870;6.160;2023-04-08T09:33:52;102457.56;;;10.86;100.00
4449;BME280;2237;51.870;6.160;2023-04-08T09:36:19;102458.44;;;10.87;100.00
4449;BME280;2237;51.870;6.160;2023-04-08T09:38:46;102454.97;;;10.92;100.00
4449;BME280;2237;51.870;6.160;2023-04-08T09:41:15;102447.19;;;11.01;100.00
4449;BME280;2237;51.870;6.160;2023-04-08T09:43:53;102455.91;;;11.15;100.00
4449;BME280;2237;51.870;6.160;2023-04-08T09:46:26;102458.50;;;11.14;100.00
4449;BME280;2237;51.870;6.160;2023-04-08T09:49:12;102468.09;;;11.19;100.00
4449;BME280;2237;51.870;6.160;2023-04-08T09:51:48;102467.22;;;11.28;100.00
4449;BME280;2237;51.870;6.160;2023-04-08T09:54:20;102464.63;;;11.42;100.00
4449;BME280;2237;51.870;6.160;2023-04-08T09:57:00;102469.84;;;11.49;100.00
4449;BME280;2237;51.870;6.160;2023-04-08T09:59:33;102471.59;;;11.58;100.00
4449;BME280;2237;51.870;6.160;2023-04-08T10:02:04;102476.81;;;11.85;100.00
4449;BME280;2237;51.870;6.160;2023-04-08T10:04:34;102466.38;;;11.74;100.00
4449;BME280;2237;51.870;6.160;2023-04-08T10:07:05;102470.72;;;11.78;100.00
4449;BME280;2237;51.870;6.160;2023-04-08T10:09:33;102457.66;;;11.92;100.00
4449;BME280;2237;51.870;6.160;2023-04-08T10:12:00;102466.34;;;11.99;100.00
4449;BME280;2237;51.870;6.160;2023-04-08T10:14:28;102467.22;;;12.10;100.00
4449;BME280;2237;51.870;6.160;2023-04-08T10:17:23;102467.97;;;12.37;100.00
4449;BME280;2237;51.870;6.160;2023-04-08T10:19:50;102465.22;;;12.72;100.00
4449;BME280;2237;51.870;6.160;2023-04-08T10:27:44;102463.22;;;14.14;95.39
4449;BME280;2237;51.870;6.160;2023-04-08T10:33:02;102470.28;;;14.82;82.91
4449;BME280;2237;51.870;6.160;2023-04-08T10:35:35;102453.25;;;15.12;86.11
4449;BME280;2237;51.870;6.160;2023-04-08T10:38:02;102462.34;;;15.45;85.91
4449;BME280;2237;51.870;6.160;2023-04-08T10:40:34;102450.75;;;15.61;80.54
4449;BME280;2237;51.870;6.160;2023-04-08T10:43:04;102456.03;;;15.58;79.31
4449;BME280;2237;51.870;6.160;2023-04-08T10:45:33;102459.34;;;15.69;75.25
4449;BME280;2237;51.870;6.160;2023-04-08T10:50:38;102464.88;;;16.01;71.70
4449;BME280;2237;51.870;6.160;2023-04-08T10:53:06;102457.44;;;16.23;70.36
4449;BME280;2237;51.870;6.160;2023-04-08T10:55:33;102462.31;;;16.43;72.27
4449;BME280;2237;51.870;6.160;2023-04-08T10:58:07;102457.47;;;16.66;72.52
4449;BME280;2237;51.870;6.160;2023-04-08T11:00:39;102454.09;;;16.59;67.73
4449;BME280;2237;51.870;6.160;2023-04-08T11:03:07;102472.84;;;16.43;60.10
4449;BME280;2237;51.870;6.160;2023-04-08T11:05:35;102455.97;;;16.10;65.44
4449;BME280;2237;51.870;6.160;2023-04-08T11:08:04;102454.22;;;16.10;68.32
4449;BME280;2237;51.870;6.160;2023-04-08T11:10:36;102459.06;;;16.30;64.94
4449;BME280;2237;51.870;6.160;2023-04-08T11:13:07;102454.56;;;16.36;59.12
4449;BME280;2237;51.870;6.160;2023-04-08T11:15:37;102442.81;;;16.53;58.50
4449;BME280;2237;51.870;6.160;2023-04-08T11:18:04;102453.84;;;16.71;59.99
4449;BME280;2237;51.870;6.160;2023-04-08T11:20:32;102445.78;;;16.79;54.79
4449;BME280;2237;51.870;6.160;2023-04-08T11:23:02;102454.22;;;16.94;55.33
4449;BME280;2237;51.870;6.160;2023-04-08T11:25:29;102441.94;;;16.92;54.44
4449;BME280;2237;51.870;6.160;2023-04-08T11:27:55;102444.94;;;16.35;53.43
4449;BME280;2237;51.870;6.160;2023-04-08T11:30:22;102446.16;;;16.19;57.71
4449;BME280;2237;51.870;6.160;2023-04-08T11:32:49;102445.56;;;16.48;59.02
4449;BME280;2237;51.870;6.160;2023-04-08T11:35:16;102437.56;;;16.53;56.56
4449;BME280;2237;51.870;6.160;2023-04-08T11:37:42;102440.72;;;16.27;54.43
4449;BME280;2237;51.870;6.160;2023-04-08T11:40:18;102447.91;;;16.19;59.14
4449;BME280;2237;51.870;6.160;2023-04-08T11:42:44;102441.19;;;16.03;57.97
4449;BME280;2237;51.870;6.160;2023-04-08T11:45:14;102450.13;;;15.94;58.10
4449;BME280;2237;51.870;6.160;2023-04-08T11:47:42;102453.22;;;16.14;55.88
4449;BME280;2237;51.870;6.160;2023-04-08T11:50:09;102455.31;;;16.42;55.11
4449;BME280;2237;51.870;6.160;2023-04-08T11:52:49;102448.47;;;16.77;54.66
4449;BME280;2237;51.870;6.160;2023-04-08T11:55:26;102459.22;;;17.05;53.71
4449;BME280;2237;51.870;6.160;2023-04-08T11:57:54;102454.94;;;17.36;53.34
4449;BME280;2237;51.870;6.160;2023-04-08T12:00:23;102462.13;;;17.67;52.52
4449;BME280;2237;51.870;6.160;2023-04-08T12:02:50;102461.81;;;17.79;48.42
4449;BME280;2237;51.870;6.160;2023-04-08T12:05:17;102460.28;;;17.70;49.45
4449;BME280;2237;51.870;6.160;2023-04-08T12:07:43;102467.16;;;17.76;48.94
4449;BME280;2237;51.870;6.160;2023-04-08T12:10:10;102455.06;;;18.32;49.28
4449;BME280;2237;51.870;6.160;2023-04-08T12:12:37;102458.66;;;18.29;46.54
4449;BME280;2237;51.870;6.160;2023-04-08T12:15:04;102460.41;;;18.29;46.58
4449;BME280;2237;51.870;6.160;2023-04-08T12:17:31;102452.81;;;18.18;47.34
4449;BME280;2237;51.870;6.160;2023-04-08T12:19:57;102463.00;;;18.63;48.34
4449;BME280;2237;51.870;6.160;2023-04-08T12:22:24;102456.84;;;18.90;47.76
4449;BME280;2237;51.870;6.160;2023-04-08T12:24:50;102450.56;;;19.22;46.64
4449;BME280;2237;51.870;6.160;2023-04-08T12:27:17;102442.63;;;19.76;46.23
4449;BME280;2237;51.870;6.160;2023-04-08T12:29:44;102456.41;;;20.08;45.73
4449;BME280;2237;51.870;6.160;2023-04-08T12:32:12;102458.03;;;20.12;44.73
4449;BME280;2237;51.870;6.160;2023-04-08T12:34:40;102450.34;;;19.82;44.63
4449;BME280;2237;51.870;6.160;2023-04-08T12:37:07;102451.13;;;19.59;44.91
4449;BME280;2237;51.870;6.160;2023-04-08T12:39:33;102447.69;;;19.82;44.84
4449;BME280;2237;51.870;6.160;2023-04-08T12:42:00;102451.19;;;20.07;45.06
4449;BME280;2237;51.870;6.160;2023-04-08T12:44:26;102452.28;;;20.01;42.64
4449;BME280;2237;51.870;6.160;2023-04-08T12:46:53;102445.47;;;19.69;41.86
4449;BME280;2237;51.870;6.160;2023-04-08T12:49:20;102448.00;;;19.20;44.18
4449;BME280;2237;51.870;6.160;2023-04-08T12:51:46;102442.69;;;18.65;44.17
4449;BME280;2237;51.870;6.160;2023-04-08T12:54:13;102450.09;;;18.52;45.93
4449;BME280;2237;51.870;6.160;2023-04-08T12:56:39;102445.38;;;18.32;46.35
4449;BME280;2237;51.870;6.160;2023-04-08T12:59:06;102452.00;;;18.48;46.93
4449;BME280;2237;51.870;6.160;2023-04-08T13:01:32;102447.59;;;18.46;47.17
4449;BME280;2237;51.870;6.160;2023-04-08T13:03:58;102458.44;;;18.68;47.64
4449;BME280;2237;51.870;6.160;2023-04-08T13:06:25;102455.63;;;18.74;46.40
4449;BME280;2237;51.870;6.160;2023-04-08T13:08:53;102453.47;;;18.86;47.41
4449;BME280;2237;51.870;6.160;2023-04-08T13:11:19;102466.06;;;19.06;47.41
4449;BME280;2237;51.870;6.160;2023-04-08T13:13:46;102454.72;;;19.02;47.10
4449;BME280;2237;51.870;6.160;2023-04-08T13:16:13;102454.47;;;19.10;47.51
4449;BME280;2237;51.870;6.160;2023-04-08T13:18:41;102455.97;;;18.91;47.71
4449;BME280;2237;51.870;6.160;2023-04-08T13:21:08;102450.09;;;18.81;47.77
4449;BME280;2237;51.870;6.160;2023-04-08T13:23:34;102451.41;;;18.67;49.18
4449;BME280;2237;51.870;6.160;2023-04-08T13:26:01;102452.28;;;18.67;48.78
4449;BME280;2237;51.870;6.160;2023-04-08T13:28:27;102456.84;;;18.31;47.89
4449;BME280;2237;51.870;6.160;2023-04-08T13:30:54;102447.19;;;18.30;49.52
4449;BME280;2237;51.870;6.160;2023-04-08T13:33:21;102442.59;;;18.68;50.41